sensor_id;sensor_type;location;lat;lon;timestamp;temperature;humidity
70368;DHT22;57789;53.868;10.728;2023-06-14T00:02:09;15.80;99.90
70368;DHT22;57789;53.868;10.728;2023-06-14T00:04:35;15.80;99.90
70368;DHT22;57789;53.868;10.728;2023-06-14T00:07:02;15.90;99.90
70368;DHT22;57789;53.868;10.728;2023-06-14T00:09:27;15.90;99.90
70368;DHT22;57789;53.868;10.728;2023-06-14T00:11:53;15.90;99.90
70368;DHT22;57789;53.868;10.728;2023-06-14T00:14:19;15.90;99.90
70368;DHT22;57789;53.868;10.728;2023-06-14T00:16:45;15.80;99.90
70368;DHT22;57789;53.868;10.728;2023-06-14T00:19:11;15.80;99.90
70368;DHT22;57789;53.868;10.728;2023-06-14T00:21:37;15.90;99.90
70368;DHT22;57789;53.868;10.728;2023-06-14T00:24:04;15.80;99.90
70368;DHT22;57789;53.868;10.728;2023-06-14T00:26:30;15.90;99.90
70368;DHT22;57789;53.868;10.728;2023-06-14T00:28:56;15.80;99.90
70368;DHT22;57789;53.868;10.728;2023-06-14T00:31:24;15.70;99.90
70368;DHT22;57789;53.868;10.728;2023-06-14T00:33:50;15.70;99.90
70368;DHT22;57789;53.868;10.728;2023-06-14T00:36:17;15.80;99.90
70368;DHT22;57789;53.868;10.728;2023-06-14T00:38:42;15.80;99.90
70368;DHT22;57789;53.868;10.728;2023-06-14T00:41:08;15.70;99.90
70368;DHT22;57789;53.868;10.728;2023-06-14T00:43:34;15.70;99.90
70368;DHT22;57789;53.868;10.728;2023-06-14T00:46:00;15.70;99.90
70368;DHT22;57789;53.868;10.728;2023-06-14T00:48:27;15.70;99.90
70368;DHT22;57789;53.868;10.728;2023-06-14T00:50:54;15.70;99.90
70368;DHT22;57789;53.868;10.728;2023-06-14T00:53:20;15.70;99.90
70368;DHT22;57789;53.868;10.728;2023-06-14T00:55:48;15.70;99.90
70368;DHT22;57789;53.868;10.728;2023-06-14T00:58:14;15.60;99.90
70368;DHT22;57789;53.868;10.728;2023-06-14T01:00:40;15.60;99.90
70368;DHT22;57789;53.868;10.728;2023-06-14T01:03:06;15.50;99.90
70368;DHT22;57789;53.868;10.728;2023-06-14T01:05:32;15.50;99.90
70368;DHT22;57789;53.868;10.728;2023-06-14T01:08:15;15.40;99.90
70368;DHT22;57789;53.868;10.728;2023-06-14T01:10:59;15.50;99.90
70368;DHT22;57789;53.868;10.728;2023-06-14T01:13:47;15.40;99.90
70368;DHT22;57789;53.868;10.728;2023-06-14T01:16:15;15.40;99.90
70368;DHT22;57789;53.868;10.728;2023-06-14T01:18:41;15.30;99.90
70368;DHT22;57789;53.868;10.728;2023-06-14T01:21:24;15.30;99.90
70368;DHT22;57789;53.868;10.728;2023-06-14T01:23:51;15.30;99.90
70368;DHT22;57789;53.868;10.728;2023-06-14T01:26:19;15.30;99.90
70368;DHT22;57789;53.868;10.728;2023-06-14T01:28:46;15.30;99.90
70368;DHT22;57789;53.868;10.728;2023-06-14T01:31:18;15.30;99.90
70368;DHT22;57789;53.868;10.728;2023-06-14T01:33:45;15.40;99.90
70368;DHT22;57789;53.868;10.728;2023-06-14T01:36:12;15.50;99.90
70368;DHT22;57789;53.868;10.728;2023-06-14T01:38:38;15.60;99.90
70368;DHT22;57789;53.868;10.728;2023-06-14T01:41:04;15.50;99.90
70368;DHT22;57789;53.868;10.728;2023-06-14T01:43:30;15.50;99.90
70368;DHT22;57789;53.868;10.728;2023-06-14T01:45:57;15.60;99.90
70368;DHT22;57789;53.868;10.728;2023-06-14T01:48:23;15.60;99.90
70368;DHT22;57789;53.868;10.728;2023-06-14T01:50:50;15.60;99.90
70368;DHT22;57789;53.868;10.728;2023-06-14T01:53:16;15.70;99.90
70368;DHT22;57789;53.868;10.728;2023-06-14T01:55:42;15.70;99.90
70368;DHT22;57789;53.868;10.728;2023-06-14T01:58:09;15.80;99.90
70368;DHT22;57789;53.868;10.728;2023-06-14T02:00:35;15.80;99.90
70368;DHT22;57789;53.868;10.728;2023-06-14T02:03:01;15.80;99.90
70368;DHT22;57789;53.868;10.728;2023-06-14T02:05:29;15.70;99.90
70368;DHT22;57789;53.868;10.728;2023-06-14T02:07:55;15.70;99.90
70368;DHT22;57789;53.868;10.728;2023-06-14T02:10:21;15.40;99.90
70368;DHT22;57789;53.868;10.728;2023-06-14T02:12:47;15.20;99.90
70368;DHT22;57789;53.868;10.728;2023-06-14T02:15:13;15.30;99.90
70368;DHT22;57789;53.868;10.728;2023-06-14T02:17:43;15.30;99.90
70368;DHT22;57789;53.868;10.728;2023-06-14T02:20:09;15.40;99.90
70368;DHT22;57789;53.868;10.728;2023-06-14T02:22:35;15.40;99.90
70368;DHT22;57789;53.868;10.728;2023-06-14T02:25:01;15.40;99.90
70368;DHT22;57789;53.868;10.728;2023-06-14T02:27:26;15.40;99.90
70368;DHT22;57789;53.868;10.728;2023-06-14T02:29:52;15.40;99.90
70368;DHT22;57789;53.868;10.728;2023-06-14T02:32:18;15.30;99.90
70368;DHT22;57789;53.868;10.728;2023-06-14T02:34:43;15.30;99.90
70368;DHT22;57789;53.868;10.728;2023-06-14T02:37:09;15.10;99.90
70368;DHT22;57789;53.868;10.728;2023-06-14T02:39:36;15.10;99.90
70368;DHT22;57789;53.868;10.728;2023-06-14T02:42:02;15.10;99.90
70368;DHT22;57789;53.868;10.728;2023-06-14T02:44:29;15.10;99.90
70368;DHT22;57789;53.868;10.728;2023-06-14T02:46:55;15.10;99.90
70368;DHT22;57789;53.868;10.728;2023-06-14T02:49:22;15.20;99.90
70368;DHT22;57789;53.868;10.728;2023-06-14T02:51:48;15.30;99.90
70368;DHT22;57789;53.868;10.728;2023-06-14T02:54:14;15.20;99.90
70368;DHT22;57789;53.868;10.728;2023-06-14T02:56:39;15.30;99.90
70368;DHT22;57789;53.868;10.728;2023-06-14T02:59:06;15.30;99.90
70368;DHT22;57789;53.868;10.728;2023-06-14T03:01:33;15.20;99.90
70368;DHT22;57789;53.868;10.728;2023-06-14T03:04:04;15.30;99.90
70368;DHT22;57789;53.868;10.728;2023-06-14T03:06:30;15.30;99.90
70368;DHT22;57789;53.868;10.728;2023-06-14T03:08:59;15.40;99.90
70368;DHT22;57789;53.868;10.728;2023-06-14T03:11:26;15.30;99.90
70368;DHT22;57789;53.868;10.728;2023-06-14T03:13:53;15.30;99.90
70368;DHT22;57789;53.868;10.728;2023-06-14T03:16:19;15.20;99.90
70368;DHT22;57789;53.868;10.728;2023-06-14T03:18:50;15.10;99.90
70368;DHT22;57789;53.868;10.728;2023-06-14T03:21:17;15.10;99.90
70368;DHT22;57789;53.868;10.728;2023-06-14T03:23:43;15.00;99.90
70368;DHT22;57789;53.868;10.728;2023-06-14T03:26:10;14.90;99.90
70368;DHT22;57789;53.868;10.728;2023-06-14T03:28:45;14.90;99.90
70368;DHT22;57789;53.868;10.728;2023-06-14T03:31:12;14.90;99.90
70368;DHT22;57789;53.868;10.728;2023-06-14T03:33:38;14.90;99.90
70368;DHT22;57789;53.868;10.728;2023-06-14T03:36:04;14.90;99.90
70368;DHT22;57789;53.868;10.728;2023-06-14T03:38:30;14.90;99.90
70368;DHT22;57789;53.868;10.728;2023-06-14T03:40:56;15.00;99.90
70368;DHT22;57789;53.868;10.728;2023-06-14T03:43:22;15.00;99.90
70368;DHT22;57789;53.868;10.728;2023-06-14T03:45:48;15.10;99.90
70368;DHT22;57789;53.868;10.728;2023-06-14T03:48:13;15.20;99.90
70368;DHT22;57789;53.868;10.728;2023-06-14T03:50:39;15.20;99.90
70368;DHT22;57789;53.868;10.728;2023-06-14T03:53:06;15.20;99.90
70368;DHT22;57789;53.868;10.728;2023-06-14T03:55:32;15.20;99.90
70368;DHT22;57789;53.868;10.728;2023-06-14T03:57:59;15.30;99.90
70368;DHT22;57789;53.868;10.728;2023-06-14T04:00:25;15.30;99.90
70368;DHT22;57789;53.868;10.728;2023-06-14T04:02:50;15.40;99.90
70368;DHT22;57789;53.868;10.728;2023-06-14T04:05:16;15.50;99.90
70368;DHT22;57789;53.868;10.728;2023-06-14T04:07:44;15.50;99.90
70368;DHT22;57789;53.868;10.728;2023-06-14T04:10:11;15.40;99.90
70368;DHT22;57789;53.868;10.728;2023-06-14T04:12:38;15.40;99.90
70368;DHT22;57789;53.868;10.728;2023-06-14T04:15:04;15.40;99.90
70368;DHT22;57789;53.868;10.728;2023-06-14T04:17:34;15.50;99.90
70368;DHT22;57789;53.868;10.728;2023-06-14T04:20:01;15.60;99.90
70368;DHT22;57789;53.868;10.728;2023-06-14T04:22:27;15.60;99.90
70368;DHT22;57789;53.868;10.728;2023-06-14T04:24:57;15.70;99.90
70368;DHT22;57789;53.868;10.728;2023-06-14T04:27:26;15.70;99.90
70368;DHT22;57789;53.868;10.728;2023-06-14T04:29:54;15.80;99.90
70368;DHT22;57789;53.868;10.728;2023-06-14T04:32:28;15.80;99.90
70368;DHT22;57789;53.868;10.728;2023-06-14T04:35:04;15.80;99.90
70368;DHT22;57789;53.868;10.728;2023-06-14T04:37:30;15.90;99.90
70368;DHT22;57789;53.868;10.728;2023-06-14T04:39:57;15.90;99.90
70368;DHT22;57789;53.868;10.728;2023-06-14T04:42:23;16.00;99.90
70368;DHT22;57789;53.868;10.728;2023-06-14T04:44:51;16.00;99.90
70368;DHT22;57789;53.868;10.728;2023-06-14T04:47:21;16.00;99.90
70368;DHT22;57789;53.868;10.728;2023-06-14T04:49:47;16.00;99.90
70368;DHT22;57789;53.868;10.728;2023-06-14T04:52:13;16.00;99.90
70368;DHT22;57789;53.868;10.728;2023-06-14T04:54:42;16.00;99.90
70368;DHT22;57789;53.868;10.728;2023-06-14T04:57:11;16.10;99.90
70368;DHT22;57789;53.868;10.728;2023-06-14T04:59:43;16.20;99.90
70368;DHT22;57789;53.868;10.728;2023-06-14T05:02:10;16.30;99.90
70368;DHT22;57789;53.868;10.728;2023-06-14T05:04:38;16.30;99.90
70368;DHT22;57789;53.868;10.728;2023-06-14T05:07:09;16.40;99.90
70368;DHT22;57789;53.868;10.728;2023-06-14T05:09:36;16.40;99.90
70368;DHT22;57789;53.868;10.728;2023-06-14T05:12:02;16.40;99.90
70368;DHT22;57789;53.868;10.728;2023-06-14T05:14:28;16.50;99.90
70368;DHT22;57789;53.868;10.728;2023-06-14T05:16:54;16.60;99.90
70368;DHT22;57789;53.868;10.728;2023-06-14T05:19:20;16.70;99.90
70368;DHT22;57789;53.868;10.728;2023-06-14T05:21:47;16.70;99.90
70368;DHT22;57789;53.868;10.728;2023-06-14T05:24:13;16.70;99.90
70368;DHT22;57789;53.868;10.728;2023-06-14T05:26:39;16.80;99.90
70368;DHT22;57789;53.868;10.728;2023-06-14T05:29:06;16.80;99.90
70368;DHT22;57789;53.868;10.728;2023-06-14T05:31:31;17.00;99.90
70368;DHT22;57789;53.868;10.728;2023-06-14T05:33:58;17.00;99.90
70368;DHT22;57789;53.868;10.728;2023-06-14T05:36:24;17.00;99.90
70368;DHT22;57789;53.868;10.728;2023-06-14T05:38:50;17.00;99.90
70368;DHT22;57789;53.868;10.728;2023-06-14T05:41:16;17.00;99.90
70368;DHT22;57789;53.868;10.728;2023-06-14T05:43:42;17.10;99.90
70368;DHT22;57789;53.868;10.728;2023-06-14T05:46:08;17.10;99.90
70368;DHT22;57789;53.868;10.728;2023-06-14T05:48:34;17.20;99.90
70368;DHT22;57789;53.868;10.728;2023-06-14T05:50:59;17.30;99.90
70368;DHT22;57789;53.868;10.728;2023-06-14T05:53:26;17.40;99.90
70368;DHT22;57789;53.868;10.728;2023-06-14T05:55:51;17.50;99.90
70368;DHT22;57789;53.868;10.728;2023-06-14T05:58:19;17.50;99.90
70368;DHT22;57789;53.868;10.728;2023-06-14T06:00:45;17.50;99.90
70368;DHT22;57789;53.868;10.728;2023-06-14T06:03:11;17.60;99.90
70368;DHT22;57789;53.868;10.728;2023-06-14T06:05:38;17.60;99.90
70368;DHT22;57789;53.868;10.728;2023-06-14T06:08:04;17.60;99.90
70368;DHT22;57789;53.868;10.728;2023-06-14T06:10:30;17.70;99.90
70368;DHT22;57789;53.868;10.728;2023-06-14T06:12:56;17.80;99.90
70368;DHT22;57789;53.868;10.728;2023-06-14T06:15:22;17.90;99.90
70368;DHT22;57789;53.868;10.728;2023-06-14T06:17:48;18.00;99.90
70368;DHT22;57789;53.868;10.728;2023-06-14T06:20:13;18.00;99.90
70368;DHT22;57789;53.868;10.728;2023-06-14T06:22:39;18.10;99.90
70368;DHT22;57789;53.868;10.728;2023-06-14T06:25:06;18.20;99.90
70368;DHT22;57789;53.868;10.728;2023-06-14T06:27:32;18.20;99.90
70368;DHT22;57789;53.868;10.728;2023-06-14T06:29:58;18.30;99.90
70368;DHT22;57789;53.868;10.728;2023-06-14T06:32:24;18.30;99.90
70368;DHT22;57789;53.868;10.728;2023-06-14T06:34:50;18.40;99.90
70368;DHT22;57789;53.868;10.728;2023-06-14T06:37:17;18.40;99.90
70368;DHT22;57789;53.868;10.728;2023-06-14T06:39:43;18.50;99.90
70368;DHT22;57789;53.868;10.728;2023-06-14T06:42:09;18.50;99.90
70368;DHT22;57789;53.868;10.728;2023-06-14T06:44:36;18.50;99.90
70368;DHT22;57789;53.868;10.728;2023-06-14T06:47:02;18.60;99.90
70368;DHT22;57789;53.868;10.728;2023-06-14T06:49:28;18.60;99.90
70368;DHT22;57789;53.868;10.728;2023-06-14T06:52:05;18.70;99.90
70368;DHT22;57789;53.868;10.728;2023-06-14T06:54:31;18.80;99.90
70368;DHT22;57789;53.868;10.728;2023-06-14T06:56:57;19.00;99.90
70368;DHT22;57789;53.868;10.728;2023-06-14T06:59:23;19.00;99.90
70368;DHT22;57789;53.868;10.728;2023-06-14T07:01:49;19.20;99.90
70368;DHT22;57789;53.868;10.728;2023-06-14T07:04:15;19.30;99.90
70368;DHT22;57789;53.868;10.728;2023-06-14T07:06:42;19.30;99.90
70368;DHT22;57789;53.868;10.728;2023-06-14T07:09:08;19.30;99.90
70368;DHT22;57789;53.868;10.728;2023-06-14T07:11:41;19.30;99.90
70368;DHT22;57789;53.868;10.728;2023-06-14T07:14:08;19.30;99.90
70368;DHT22;57789;53.868;10.728;2023-06-14T07:16:33;19.40;99.90
70368;DHT22;57789;53.868;10.728;2023-06-14T07:18:59;19.50;99.90
70368;DHT22;57789;53.868;10.728;2023-06-14T07:21:26;19.60;99.90
70368;DHT22;57789;53.868;10.728;2023-06-14T07:23:53;19.70;99.90
70368;DHT22;57789;53.868;10.728;2023-06-14T07:26:19;19.60;99.90
70368;DHT22;57789;53.868;10.728;2023-06-14T07:28:46;19.70;99.90
70368;DHT22;57789;53.868;10.728;2023-06-14T07:31:13;19.70;99.90
70368;DHT22;57789;53.868;10.728;2023-06-14T07:33:40;19.80;99.90
70368;DHT22;57789;53.868;10.728;2023-06-14T07:36:06;19.80;99.90
70368;DHT22;57789;53.868;10.728;2023-06-14T07:38:31;19.90;99.90
70368;DHT22;57789;53.868;10.728;2023-06-14T07:40:57;19.80;99.90
70368;DHT22;57789;53.868;10.728;2023-06-14T07:43:23;19.80;99.90
70368;DHT22;57789;53.868;10.728;2023-06-14T07:45:49;19.80;99.90
70368;DHT22;57789;53.868;10.728;2023-06-14T07:48:14;19.90;99.90
70368;DHT22;57789;53.868;10.728;2023-06-14T07:50:40;20.00;99.90
70368;DHT22;57789;53.868;10.728;2023-06-14T07:53:06;20.10;99.90
70368;DHT22;57789;53.868;10.728;2023-06-14T07:55:32;20.10;99.90
70368;DHT22;57789;53.868;10.728;2023-06-14T07:58:05;20.10;99.90
70368;DHT22;57789;53.868;10.728;2023-06-14T08:00:34;20.20;99.90
70368;DHT22;57789;53.868;10.728;2023-06-14T08:03:00;20.30;99.90
70368;DHT22;57789;53.868;10.728;2023-06-14T08:05:26;20.30;99.90
70368;DHT22;57789;53.868;10.728;2023-06-14T08:07:52;20.30;99.90
70368;DHT22;57789;53.868;10.728;2023-06-14T08:10:19;20.30;99.90
70368;DHT22;57789;53.868;10.728;2023-06-14T08:12:44;20.30;99.90
70368;DHT22;57789;53.868;10.728;2023-06-14T08:15:10;20.40;99.90
70368;DHT22;57789;53.868;10.728;2023-06-14T08:17:36;20.40;99.90
70368;DHT22;57789;53.868;10.728;2023-06-14T08:20:02;20.40;99.90
70368;DHT22;57789;53.868;10.728;2023-06-14T08:22:30;20.60;99.90
70368;DHT22;57789;53.868;10.728;2023-06-14T08:24:59;20.60;99.90
70368;DHT22;57789;53.868;10.728;2023-06-14T08:27:26;20.70;99.90
70368;DHT22;57789;53.868;10.728;2023-06-14T08:29:52;20.70;99.90
70368;DHT22;57789;53.868;10.728;2023-06-14T08:32:18;20.80;99.90
70368;DHT22;57789;53.868;10.728;2023-06-14T08:34:44;20.80;99.90
70368;DHT22;57789;53.868;10.728;2023-06-14T08:37:14;20.80;99.90
70368;DHT22;57789;53.868;10.728;2023-06-14T08:39:40;20.70;99.90
70368;DHT22;57789;53.868;10.728;2023-06-14T08:42:07;20.80;99.90
70368;DHT22;57789;53.868;10.728;2023-06-14T08:44:34;20.80;99.90
70368;DHT22;57789;53.868;10.728;2023-06-14T08:47:00;20.80;99.90
70368;DHT22;57789;53.868;10.728;2023-06-14T08:49:26;20.90;99.90
70368;DHT22;57789;53.868;10.728;2023-06-14T08:52:00;21.00;99.90
70368;DHT22;57789;53.868;10.728;2023-06-14T08:54:29;21.00;99.90
70368;DHT22;57789;53.868;10.728;2023-06-14T08:56:59;21.00;99.90
70368;DHT22;57789;53.868;10.728;2023-06-14T08:59:28;21.00;99.90
70368;DHT22;57789;53.868;10.728;2023-06-14T09:01:54;21.20;99.90
70368;DHT22;57789;53.868;10.728;2023-06-14T09:04:23;21.20;99.90
70368;DHT22;57789;53.868;10.728;2023-06-14T09:06:53;21.30;99.90
70368;DHT22;57789;53.868;10.728;2023-06-14T09:09:21;21.40;99.90
70368;DHT22;57789;53.868;10.728;2023-06-14T09:11:51;21.50;99.90
70368;DHT22;57789;53.868;10.728;2023-06-14T09:14:23;21.70;99.90
70368;DHT22;57789;53.868;10.728;2023-06-14T09:16:53;21.70;99.90
70368;DHT22;57789;53.868;10.728;2023-06-14T09:19:23;21.80;99.90
70368;DHT22;57789;53.868;10.728;2023-06-14T09:21:49;21.90;99.90
70368;DHT22;57789;53.868;10.728;2023-06-14T09:24:15;22.00;99.90
70368;DHT22;57789;53.868;10.728;2023-06-14T09:26:41;22.30;99.90
70368;DHT22;57789;53.868;10.728;2023-06-14T09:29:08;22.70;99.90
70368;DHT22;57789;53.868;10.728;2023-06-14T09:31:37;22.90;99.90
70368;DHT22;57789;53.868;10.728;2023-06-14T09:34:03;23.50;99.90
70368;DHT22;57789;53.868;10.728;2023-06-14T09:36:31;23.90;99.90
70368;DHT22;57789;53.868;10.728;2023-06-14T09:38:59;23.90;99.90
70368;DHT22;57789;53.868;10.728;2023-06-14T09:41:40;24.20;99.90
70368;DHT22;57789;53.868;10.728;2023-06-14T09:44:07;24.10;99.90
70368;DHT22;57789;53.868;10.728;2023-06-14T09:46:34;24.50;99.90
70368;DHT22;57789;53.868;10.728;2023-06-14T09:49:01;24.80;99.90
70368;DHT22;57789;53.868;10.728;2023-06-14T09:51:28;24.70;99.80
70368;DHT22;57789;53.868;10.728;2023-06-14T09:54:02;24.00;99.20
70368;DHT22;57789;53.868;10.728;2023-06-14T09:56:32;24.00;99.90
70368;DHT22;57789;53.868;10.728;2023-06-14T09:59:00;24.00;98.40
70368;DHT22;57789;53.868;10.728;2023-06-14T10:01:30;24.00;98.90
70368;DHT22;57789;53.868;10.728;2023-06-14T10:04:07;24.00;99.40
70368;DHT22;57789;53.868;10.728;2023-06-14T10:06:37;23.80;98.60
70368;DHT22;57789;53.868;10.728;2023-06-14T10:09:04;23.70;98.30
70368;DHT22;57789;53.868;10.728;2023-06-14T10:11:35;23.80;98.50
70368;DHT22;57789;53.868;10.728;2023-06-14T10:14:06;23.30;98.00
70368;DHT22;57789;53.868;10.728;2023-06-14T10:17:05;23.30;98.80
70368;DHT22;57789;53.868;10.728;2023-06-14T10:19:48;23.60;98.80
70368;DHT22;57789;53.868;10.728;2023-06-14T10:22:22;23.80;98.80
70368;DHT22;57789;53.868;10.728;2023-06-14T10:24:50;23.90;98.80
70368;DHT22;57789;53.868;10.728;2023-06-14T10:27:16;24.40;97.00
70368;DHT22;57789;53.868;10.728;2023-06-14T10:32:24;24.60;96.40
70368;DHT22;57789;53.868;10.728;2023-06-14T10:34:59;24.70;95.10
70368;DHT22;57789;53.868;10.728;2023-06-14T10:37:26;24.90;94.00
70368;DHT22;57789;53.868;10.728;2023-06-14T10:39:52;24.90;94.50
70368;DHT22;57789;53.868;10.728;2023-06-14T10:42:19;24.60;95.10
70368;DHT22;57789;53.868;10.728;2023-06-14T10:44:57;24.60;96.60
70368;DHT22;57789;53.868;10.728;2023-06-14T10:47:34;24.80;96.70
70368;DHT22;57789;53.868;10.728;2023-06-14T10:52:42;24.60;96.40
70368;DHT22;57789;53.868;10.728;2023-06-14T10:55:15;24.60;95.60
70368;DHT22;57789;53.868;10.728;2023-06-14T11:00:22;24.40;95.30
70368;DHT22;57789;53.868;10.728;2023-06-14T11:05:57;24.30;94.60
70368;DHT22;57789;53.868;10.728;2023-06-14T11:11:06;24.70;96.20
70368;DHT22;57789;53.868;10.728;2023-06-14T11:13:32;24.70;96.50
70368;DHT22;57789;53.868;10.728;2023-06-14T11:15:58;24.90;96.50
70368;DHT22;57789;53.868;10.728;2023-06-14T11:18:24;24.70;92.50
70368;DHT22;57789;53.868;10.728;2023-06-14T11:20:53;24.80;92.30
70368;DHT22;57789;53.868;10.728;2023-06-14T11:23:20;24.50;91.30
70368;DHT22;57789;53.868;10.728;2023-06-14T11:25:50;24.60;87.90
70368;DHT22;57789;53.868;10.728;2023-06-14T11:28:16;24.60;90.60
70368;DHT22;57789;53.868;10.728;2023-06-14T11:30:43;24.80;87.70
70368;DHT22;57789;53.868;10.728;2023-06-14T11:33:10;24.80;80.50
70368;DHT22;57789;53.868;10.728;2023-06-14T11:35:37;24.70;84.30
70368;DHT22;57789;53.868;10.728;2023-06-14T11:38:04;24.70;85.10
70368;DHT22;57789;53.868;10.728;2023-06-14T11:40:30;24.80;85.80
70368;DHT22;57789;53.868;10.728;2023-06-14T11:43:02;25.10;88.50
70368;DHT22;57789;53.868;10.728;2023-06-14T11:45:29;25.00;89.40
70368;DHT22;57789;53.868;10.728;2023-06-14T11:47:56;25.20;90.10
70368;DHT22;57789;53.868;10.728;2023-06-14T11:50:23;25.60;87.50
70368;DHT22;57789;53.868;10.728;2023-06-14T11:52:59;25.60;85.10
70368;DHT22;57789;53.868;10.728;2023-06-14T11:55:32;25.90;85.50
70368;DHT22;57789;53.868;10.728;2023-06-14T11:58:01;26.30;81.80
70368;DHT22;57789;53.868;10.728;2023-06-14T12:00:27;26.90;78.80
70368;DHT22;57789;53.868;10.728;2023-06-14T12:02:54;27.20;78.00
70368;DHT22;57789;53.868;10.728;2023-06-14T12:05:23;27.20;74.10
70368;DHT22;57789;53.868;10.728;2023-06-14T12:07:49;27.30;71.20
70368;DHT22;57789;53.868;10.728;2023-06-14T12:10:16;27.60;70.10
70368;DHT22;57789;53.868;10.728;2023-06-14T12:12:42;27.60;71.60
70368;DHT22;57789;53.868;10.728;2023-06-14T12:15:09;28.50;67.70
70368;DHT22;57789;53.868;10.728;2023-06-14T12:17:37;29.00;66.30
70368;DHT22;57789;53.868;10.728;2023-06-14T12:20:10;29.50;63.30
70368;DHT22;57789;53.868;10.728;2023-06-14T12:22:37;29.70;62.80
70368;DHT22;57789;53.868;10.728;2023-06-14T12:25:05;29.10;55.90
70368;DHT22;57789;53.868;10.728;2023-06-14T12:27:31;29.00;57.80
70368;DHT22;57789;53.868;10.728;2023-06-14T12:30:03;28.90;58.30
70368;DHT22;57789;53.868;10.728;2023-06-14T12:32:30;28.80;59.60
70368;DHT22;57789;53.868;10.728;2023-06-14T12:34:56;29.30;60.10
70368;DHT22;57789;53.868;10.728;2023-06-14T12:37:22;29.40;58.30
70368;DHT22;57789;53.868;10.728;2023-06-14T12:39:49;29.50;57.10
70368;DHT22;57789;53.868;10.728;2023-06-14T12:42:16;29.40;56.10
70368;DHT22;57789;53.868;10.728;2023-06-14T12:44:42;29.30;55.60
70368;DHT22;57789;53.868;10.728;2023-06-14T12:47:08;29.90;55.90
70368;DHT22;57789;53.868;10.728;2023-06-14T12:49:33;29.70;55.00
70368;DHT22;57789;53.868;10.728;2023-06-14T12:51:59;30.10;54.10
70368;DHT22;57789;53.868;10.728;2023-06-14T12:54:25;30.20;53.60
70368;DHT22;57789;53.868;10.728;2023-06-14T12:56:51;30.10;53.00
70368;DHT22;57789;53.868;10.728;2023-06-14T12:59:18;30.50;52.50
70368;DHT22;57789;53.868;10.728;2023-06-14T13:01:44;30.30;52.20
70368;DHT22;57789;53.868;10.728;2023-06-14T13:04:10;30.70;52.30
70368;DHT22;57789;53.868;10.728;2023-06-14T13:06:39;30.70;50.80
70368;DHT22;57789;53.868;10.728;2023-06-14T13:09:05;30.30;50.90
70368;DHT22;57789;53.868;10.728;2023-06-14T13:11:31;30.40;51.60
70368;DHT22;57789;53.868;10.728;2023-06-14T13:13:57;30.20;50.30
70368;DHT22;57789;53.868;10.728;2023-06-14T13:16:23;29.50;50.40
70368;DHT22;57789;53.868;10.728;2023-06-14T13:18:48;29.60;51.90
70368;DHT22;57789;53.868;10.728;2023-06-14T13:21:16;29.90;51.90
70368;DHT22;57789;53.868;10.728;2023-06-14T13:23:42;30.10;51.70
70368;DHT22;57789;53.868;10.728;2023-06-14T13:26:07;30.20;51.90
70368;DHT22;57789;53.868;10.728;2023-06-14T13:28:34;30.50;50.70
70368;DHT22;57789;53.868;10.728;2023-06-14T13:31:01;31.40;50.90
70368;DHT22;57789;53.868;10.728;2023-06-14T13:33:27;30.80;48.50
70368;DHT22;57789;53.868;10.728;2023-06-14T13:35:53;31.30;48.80
70368;DHT22;57789;53.868;10.728;2023-06-14T13:38:19;31.20;48.40
70368;DHT22;57789;53.868;10.728;2023-06-14T13:40:45;30.30;49.60
70368;DHT22;57789;53.868;10.728;2023-06-14T13:43:11;30.40;50.10
70368;DHT22;57789;53.868;10.728;2023-06-14T13:45:37;30.30;49.80
70368;DHT22;57789;53.868;10.728;2023-06-14T13:48:03;30.00;50.10
70368;DHT22;57789;53.868;10.728;2023-06-14T13:50:29;30.50;51.10
70368;DHT22;57789;53.868;10.728;2023-06-14T13:52:54;30.20;50.70
70368;DHT22;57789;53.868;10.728;2023-06-14T13:55:20;30.20;50.20
70368;DHT22;57789;53.868;10.728;2023-06-14T13:57:46;30.70;49.60
70368;DHT22;57789;53.868;10.728;2023-06-14T14:00:13;30.80;49.80
70368;DHT22;57789;53.868;10.728;2023-06-14T14:02:39;30.70;50.10
70368;DHT22;57789;53.868;10.728;2023-06-14T14:05:05;31.00;49.60
70368;DHT22;57789;53.868;10.728;2023-06-14T14:07:32;31.30;49.90
70368;DHT22;57789;53.868;10.728;2023-06-14T14:10:01;31.40;48.70
70368;DHT22;57789;53.868;10.728;2023-06-14T14:12:26;31.50;48.70
70368;DHT22;57789;53.868;10.728;2023-06-14T14:14:54;31.40;48.20
70368;DHT22;57789;53.868;10.728;2023-06-14T14:17:21;31.10;48.30
70368;DHT22;57789;53.868;10.728;2023-06-14T14:19:48;31.00;48.10
70368;DHT22;57789;53.868;10.728;2023-06-14T14:22:14;30.60;48.40
70368;DHT22;57789;53.868;10.728;2023-06-14T14:24:48;31.00;48.10
70368;DHT22;57789;53.868;10.728;2023-06-14T14:27:15;30.90;47.50
70368;DHT22;57789;53.868;10.728;2023-06-14T14:29:41;31.00;48.00
70368;DHT22;57789;53.868;10.728;2023-06-14T14:32:08;31.70;47.40
70368;DHT22;57789;53.868;10.728;2023-06-14T14:34:36;31.30;46.40
70368;DHT22;57789;53.868;10.728;2023-06-14T14:37:01;31.40;46.90
70368;DHT22;57789;53.868;10.728;2023-06-14T14:39:27;31.70;46.70
70368;DHT22;57789;53.868;10.728;2023-06-14T14:41:53;30.70;46.80
70368;DHT22;57789;53.868;10.728;2023-06-14T14:44:19;30.70;47.10
70368;DHT22;57789;53.868;10.728;2023-06-14T14:46:45;30.80;47.50
70368;DHT22;57789;53.868;10.728;2023-06-14T14:49:11;31.50;46.50
70368;DHT22;57789;53.868;10.728;2023-06-14T14:51:37;31.50;46.40
70368;DHT22;57789;53.868;10.728;2023-06-14T14:54:04;32.30;45.90
70368;DHT22;57789;53.868;10.728;2023-06-14T14:56:31;31.60;44.90
70368;DHT22;57789;53.868;10.728;2023-06-14T14:58:57;31.40;45.40
70368;DHT22;57789;53.868;10.728;2023-06-14T15:01:25;31.50;45.50
70368;DHT22;57789;53.868;10.728;2023-06-14T15:03:51;31.70;44.80
70368;DHT22;57789;53.868;10.728;2023-06-14T15:06:17;30.90;45.30
70368;DHT22;57789;53.868;10.728;2023-06-14T15:08:43;31.30;45.40
70368;DHT22;57789;53.868;10.728;2023-06-14T15:11:10;31.10;44.60
70368;DHT22;57789;53.868;10.728;2023-06-14T15:13:36;31.60;44.40
70368;DHT22;57789;53.868;10.728;2023-06-14T15:16:02;31.80;44.20
70368;DHT22;57789;53.868;10.728;2023-06-14T15:18:28;31.60;43.50
70368;DHT22;57789;53.868;10.728;2023-06-14T15:20:54;32.50;43.20
70368;DHT22;57789;53.868;10.728;2023-06-14T15:23:20;31.90;42.50
70368;DHT22;57789;53.868;10.728;2023-06-14T15:25:47;32.00;42.40
70368;DHT22;57789;53.868;10.728;2023-06-14T15:28:13;31.20;42.50
70368;DHT22;57789;53.868;10.728;2023-06-14T15:30:39;31.60;42.80